AirNav   Textron
 
 666 users online  

9OI9 Riverside Methodist Hospital Heliport
Columbus, Ohio, USA

GOING TO COLUMBUS?


FAA INFORMATION EFFECTIVE 20 JULY 2017

Location

FAA Identifier: 9OI9
Lat/Long: 40-01-52.7000N / 083-02-10.1000W
40-01.878333N / 083-02.168333W
40.0313056 / -83.0361389
(estimated)
Elevation: 766 ft. / 233 m (estimated)
Variation: 06W (2015)
From city: 5 miles NW of COLUMBUS, OH
Time zone: UTC -4 (UTC -5 during Standard Time)
Zip code: 43214

Heliport Operations

Heliport use: Private use, MEDICAL USE.
Activation date: 12/1983
Control tower: no
ARTCC: INDIANAPOLIS CENTER
FSS: DAYTON FLIGHT SERVICE STATION
NOTAMs facility: FDC (NOTAM-D service not available)
Attendance: CONTINUOUS
Wind indicator: yes
Segmented circle: no

Heliport Communications

HOSIG DP: 125.95
WX ASOS at OSU (3 nm NW): PHONE 614-451-2465
WX ASOS at CMH (7 nm E): 124.6 (614-338-4083)
WX AWOS-3 at TZR (9 nm SW): 135.925 (614-878-1722)
WX AWOS-3 at LCK (14 nm S): 132.750 (614-492-2441)
WX AWOS-3 at DLZ (15 nm N): 119.025 (740-203-1878)
WX AWOS-3 at MRT (19 nm NW): 119.275 (937-644-2967)

Nearby radio navigation aids

VOR radial/distance  VOR name  Freq  Var
APEr257/21.8APPLETON VORTAC116.7006W
XUBr360/(30.4)YELLOW BUD VOR112.5005W
BUDr183/(35.1)BUCKEYE VOR109.8005W
SGHr077/39.0SPRINGFIELD VOR/DME113.2004W

 
NDB name  Hdg/Dist  Freq  Var  ID
FULER114/7.951505WOS --- ...
PICKL321/12.937607WLC .-.. -.-.
BOUTN036/14.923005WBU -... ..-
NEWARK277/26.352406WHEH .... . ....
COURT HOUSE038/30.641406WCSS -.-. ... ...
CLARK COUNTY079/35.534104WCCJ -.-. -.-. .---
RUSHSYLVANIA137/38.732605WRUV .-. ..- ...-

Heliport Services

Runway Information

Helipad H1

Dimensions: 50 x 50 ft. / 15 x 15 m
Surface: asphalt
Traffic pattern: leftleft

Heliport Ownership and Management from official FAA records

Ownership: Privately-owned
Owner: RIVERSIDE METHODIST HOSPITAL
3535 OLENTANGY RIVER ROAD
COLUMBUS, OH 43214
Phone 614-566-4400
Manager: BRIAN SAUL
3535 OLENTANGY RIVER ROAD
COLUMBUS, OH 43214
Phone 614-566-4400
FOR EMGCY DEPT SVC CALL 614-566-5321. FOR PROTECTIVE SVC CALL 614-566-4400/8000.

Additional Remarks

A1010-1 LIQUID 02 STORAGE TANK ADJ TO & NNE OF HELI.
LIQUID OXYGEN TANK NE OF PAD.

Instrument Procedures

There are no published instrument procedures at 9OI9.

Some nearby airports with instrument procedures:

KOSU - Ohio State University Airport (3 nm NW)
KCMH - John Glenn Columbus International Airport (7 nm E)
KTZR - Bolton Field Airport (9 nm SW)
KLCK - Rickenbacker International Airport (14 nm S)
KDLZ - Delaware Municipal Airport - Jim Moore Field (15 nm N)
KMRT - Union County Airport (19 nm NW)
 
Loc | Ops | Rwys | IFR | FBO | Links
Com | Nav | Svcs | Stats | Notes

City of Findlay
 
Area around 9OI9 (Riverside Methodist Hospital Heliport)
 
Road maps at: MapQuest Bing Google
 
Aerial photo
No photo
 
Sectional chart

 
Airport distance calculator
Flying to Riverside Methodist Hospital Heliport? Find the distance to fly.

From to 9OI9

Sunrise and sunset
Times for 22-Jul-2017
 Local
(UTC-4)
 Zulu
(UTC)
Morning civil twilight05:5109:51
Sunrise06:2210:22
Sunset20:5500:55
Evening civil twilight21:2601:26

Current date and time
Zulu (UTC)  22-Jul-2017 04:03:54
Local (UTC-4)  22-Jul-2017 00:03:54
 
METAR
KOSU 
4nm NW 
220353Z AUTO 00000KT 10SM CLR 23/23 A2998 RMK AO2 SLP146 T02330233
KCMH 
7nm E 
220351Z 00000KT 10SM FEW080 BKN200 25/23 A2998 RMK AO2 SLP143 LTG DSNT S HRZN T02500233
KTZR 
10nm SW 
220355Z AUTO 23003KT 10SM CLR 22/22 A3000 RMK AO2 T02200220
KLCK 
14nm SE 
220355Z AUTO 24003KT 10SM BKN060 23/23 A2999 RMK AO2 LTG DSNT SE T02270227
KDLZ 
15nm N 
220356Z AUTO 19004KT 7SM CLR 23/22 A2999 RMK AO2
KMRT 
19nm NW 
220353Z AUTO 00000KT 5SM CLR 21/20 A2999 RMK AO2 T02060201
TAF
KCMH 
7nm E 
212252Z 2123/2218 24005KT P6SM FEW050 SCT200 TEMPO 2123/2201 4SM -SHRA BKN060 FM221200 VRB03KT P6SM VCSH BKN050 TEMPO 2214/2218 22014G20KT 5SM -SHRA BR BKN020 OVC040
KLCK 
14nm SE 
212252Z 2123/2218 24005KT P6SM FEW050 SCT200 TEMPO 2123/2201 4SM -SHRA BKN060 FM221200 VRB03KT P6SM VCSH BKN050 TEMPO 2214/2218 22014G20KT 5SM -SHRA BR BKN020 OVC040
NOTAMs
Click for the latest NOTAMs
NOTAMs are issued by the DoD/FAA and will open in a separate window not controlled by AirNav.

 

 
 

Would you like to see your business listed on this page?

 If your business provides an interesting product or service to pilots, flight crews, aircraft, or users of the Riverside Methodist Hospital Heliport, you should consider listing it here.  To start the listing process, click on the button below
 
Add a business
 

Other Pages about Riverside Methodist Hospital Heliport

Update a link
 
Copyright © AirNav, LLC. All rights reserved. Privacy Policy  Contact